Time;durP1;ratioP1;P1;durP2;ratioP2;P2;SDS_P1;SDS_P2;PMS_P1;PMS_P2;Temp;Humidity;BMP_temperature;BMP_pressure;BME280_temperature;BME280_humidity;BME280_pressure;Samples;Min_cycle;Max_cycle;Signal;HPM_P1;HPM_P2
2020/12/17 00:01:42;;;;;;;6.75;5.83;;;;;;;6.60;71.16;102923.84;1793070;80;21152;-46
2020/12/17 00:04:10;;;;;;;6.53;5.50;;;;;;;6.60;71.22;102923.84;1793295;80;21160;-46
2020/12/17 00:06:39;;;;;;;7.00;6.30;;;;;;;6.58;71.43;102914.75;1793253;80;21168;-46
2020/12/17 00:09:08;;;;;;;7.90;5.97;;;;;;;6.58;71.58;102920.33;1793506;80;21144;-46
2020/12/17 00:11:36;;;;;;;6.85;5.90;;;;;;;6.61;71.64;102916.97;1793336;80;21294;-46
2020/12/17 00:14:04;;;;;;;8.03;5.83;;;;;;;6.57;71.71;102920.73;1793277;80;21140;-46
2020/12/17 00:16:34;;;;;;;9.85;6.65;;;;;;;6.58;71.83;102912.57;1793284;80;21157;-46
2020/12/17 00:19:04;;;;;;;8.18;6.42;;;;;;;6.61;71.83;102909.20;1793377;80;21120;-46
2020/12/17 00:21:33;;;;;;;7.62;6.30;;;;;;;6.61;71.98;102903.63;1793292;80;21164;-46
2020/12/17 00:24:03;;;;;;;8.85;6.80;;;;;;;6.61;71.91;102904.03;1793437;80;21168;-46
2020/12/17 00:26:31;;;;;;;7.37;6.40;;;;;;;6.62;72.01;102908.35;1763653;80;21168;-46
2020/12/17 00:29:01;;;;;;;7.83;6.12;;;;;;;6.62;71.99;102903.18;1788228;80;21270;-47
2020/12/17 00:31:42;;;;;;;;;;;;;;;;;;;;;
2020/12/17 00:34:08;;;;;;;9.05;7.10;;;;;;;6.67;71.92;102910.67;1819956;79;22802;-45
2020/12/17 00:36:38;;;;;;;9.15;7.03;;;;;;;6.64;72.01;102911.86;1788706;80;21302;-46
2020/12/17 00:39:06;;;;;;;7.33;6.12;;;;;;;6.64;72.10;102914.03;1793420;80;21171;-46
2020/12/17 00:41:34;;;;;;;8.65;6.83;;;;;;;6.65;71.99;102905.46;1793664;80;21152;-45
2020/12/17 00:44:02;;;;;;;8.78;6.95;;;;;;;6.66;72.03;102910.23;1784890;80;21164;-46
2020/12/17 00:46:32;;;;;;;7.62;6.45;;;;;;;6.68;72.06;102904.67;1793262;80;21148;-46
2020/12/17 00:49:00;;;;;;;8.05;6.85;;;;;;;6.68;72.07;102904.23;1793254;80;21309;-46
2020/12/17 00:51:32;;;;;;;;;;;;;;;6.70;72.27;102903.02;1795958;80;21121;-45
2020/12/17 00:54:00;;;;;;;6.87;6.17;;;;;;;6.73;72.37;102897.91;1793460;80;20123;-45
2020/12/17 00:56:30;;;;;;;7.08;5.55;;;;;;;6.78;72.27;102900.22;1793424;80;21148;-45
2020/12/17 00:58:59;;;;;;;11.73;6.72;;;;;;;6.80;72.13;102899.40;1793313;80;21159;-45
2020/12/17 01:01:27;;;;;;;9.93;6.47;;;;;;;6.82;71.99;102894.29;1793321;80;21184;-45
2020/12/17 01:03:55;;;;;;;8.00;6.00;;;;;;;6.83;72.12;102894.33;1793557;80;21140;-45
2020/12/17 01:06:25;;;;;;;9.40;7.03;;;;;;;6.85;72.17;102891.77;1793436;80;21607;-45
2020/12/17 01:08:53;;;;;;;8.75;6.80;;;;;;;6.88;72.20;102891.87;1793257;80;21148;-45
2020/12/17 01:11:28;;;;;;;8.33;6.60;;;;;;;6.92;72.18;102880.35;1793289;80;21159;-45
2020/12/17 01:13:57;;;;;;;7.78;6.58;;;;;;;6.94;72.15;102873.91;1793268;80;21121;-45
2020/12/17 01:16:25;;;;;;;9.30;6.53;;;;;;;6.96;72.17;102874.83;1793330;80;21604;-45
2020/12/17 01:18:53;;;;;;;7.75;5.67;;;;;;;6.98;72.11;102873.16;1793384;80;21580;-45
2020/12/17 01:21:21;;;;;;;9.90;5.55;;;;;;;7.03;72.01;102880.61;1793258;80;21160;-45
2020/12/17 01:23:50;;;;;;;6.33;5.67;;;;;;;7.08;71.91;102879.03;1793290;80;21151;-45
2020/12/17 01:26:19;;;;;;;7.22;5.85;;;;;;;7.11;71.84;102876.09;1793470;80;21156;-45
2020/12/17 01:28:47;;;;;;;6.58;5.87;;;;;;;7.15;71.65;102880.52;1793439;80;21172;-45
2020/12/17 01:31:15;;;;;;;5.40;4.80;;;;;;;7.18;71.55;102874.55;1793649;80;21278;-45
2020/12/17 01:33:43;;;;;;;6.45;5.47;;;;;;;7.20;71.39;102874.16;1783491;80;21286;-45
2020/12/17 01:36:13;;;;;;;7.55;5.62;;;;;;;7.21;71.22;102866.87;1780038;81;21316;-45
2020/12/17 01:38:41;;;;;;;6.62;5.95;;;;;;;7.25;71.05;102869.99;1779730;81;21292;-45
2020/12/17 01:41:13;;;;;;;6.33;5.45;;;;;;;7.26;71.01;102871.73;1779738;81;21278;-45
2020/12/17 01:43:43;;;;;;;6.22;5.03;;;;;;;7.27;70.93;102865.28;1779977;81;21153;-46
2020/12/17 01:46:16;;;;;;;5.47;4.60;;;;;;;7.31;70.92;102867.55;1778898;80;21173;-46
2020/12/17 01:48:48;;;;;;;6.58;4.85;;;;;;;7.33;70.85;102867.17;1752809;82;21140;-46
2020/12/17 01:51:17;;;;;;;6.12;4.92;;;;;;;7.36;70.79;102869.83;1752695;82;21159;-45
2020/12/17 01:53:45;;;;;;;7.42;5.40;;;;;;;7.39;70.60;102867.33;1752879;82;21583;-46
2020/12/17 01:56:25;;;;;;;5.50;4.97;;;;;;;7.42;70.47;102867.37;1752719;82;21179;-46
2020/12/17 01:59:14;;;;;;;5.72;4.80;;;;;;;7.47;70.35;102860.61;1804427;79;38017;-45
2020/12/17 02:01:46;;;;;;;4.37;3.83;;;;;;;7.49;70.38;102863.23;1790426;80;21281;-45
2020/12/17 02:04:20;;;;;;;5.45;4.17;;;;;;;7.56;69.97;102860.84;1793254;80;21148;-46
2020/12/17 02:06:48;;;;;;;5.45;4.85;;;;;;;7.58;69.73;102859.17;1793309;80;21113;-45
2020/12/17 02:09:19;;;;;;;5.78;4.53;;;;;;;7.60;69.66;102856.61;1793261;80;21156;-46
2020/12/17 02:11:55;;;;;;;6.28;4.72;;;;;;;7.60;69.60;102860.08;1793461;80;21160;-46
2020/12/17 02:14:23;;;;;;;5.65;4.60;;;;;;;7.61;69.63;102859.23;1793348;80;21168;-46
2020/12/17 02:16:52;;;;;;;5.70;4.72;;;;;;;7.63;69.60;102861.43;1793637;80;21141;-46
2020/12/17 02:19:23;;;;;;;4.45;4.05;;;;;;;7.68;69.58;102868.91;1793593;80;21313;-46
2020/12/17 02:21:51;;;;;;;4.47;4.08;;;;;;;7.71;69.47;102866.37;1793296;80;21282;-47
2020/12/17 02:24:20;;;;;;;4.65;4.10;;;;;;;7.73;69.29;102862.55;1763306;80;21219;-46
2020/12/17 02:26:49;;;;;;;4.67;4.08;;;;;;;7.74;69.20;102857.39;1793620;80;21156;-46
2020/12/17 02:29:19;;;;;;;5.35;4.37;;;;;;;7.75;69.12;102862.16;1793311;80;21482;-46
2020/12/17 02:31:47;;;;;;;4.22;3.80;;;;;;;7.76;69.16;102862.59;1793521;80;21160;-46
2020/12/17 02:34:17;;;;;;;5.17;4.45;;;;;;;7.77;69.14;102858.73;1793592;80;21179;-47
2020/12/17 02:36:45;;;;;;;6.97;4.50;;;;;;;7.80;69.00;102860.53;1793309;80;21151;-46
2020/12/17 02:39:13;;;;;;;4.58;4.17;;;;;;;7.81;68.88;102865.73;1793273;80;21282;-46
2020/12/17 02:41:41;;;;;;;5.87;4.35;;;;;;;7.81;68.74;102857.97;1793561;80;21317;-46
2020/12/17 02:44:13;;;;;;;7.25;5.28;;;;;;;7.82;68.69;102862.32;1793541;80;21168;-46
2020/12/17 02:46:42;;;;;;;6.62;5.00;;;;;;;7.79;68.77;102860.94;1793229;80;21583;-46
2020/12/17 02:49:10;;;;;;;5.15;4.53;;;;;;;7.79;68.77;102857.05;1793600;80;21151;-46
2020/12/17 02:51:39;;;;;;;6.20;4.60;;;;;;;7.80;68.67;102856.23;1793298;80;21172;-46
2020/12/17 02:54:08;;;;;;;5.47;4.67;;;;;;;7.82;68.57;102862.32;1793521;80;21587;-46
2020/12/17 02:56:36;;;;;;;4.65;4.15;;;;;;;7.83;68.50;102862.77;1793220;80;21124;-46
2020/12/17 02:59:04;;;;;;;5.45;4.17;;;;;;;7.83;68.56;102865.35;1785965;80;21302;-46
2020/12/17 03:01:34;;;;;;;5.33;4.00;;;;;;;7.84;68.67;102861.94;1785477;80;21294;-46
2020/12/17 03:04:05;;;;;;;6.37;4.65;;;;;;;7.87;68.61;102868.47;1721259;83;21193;-46
2020/12/17 03:06:33;;;;;;;5.62;4.67;;;;;;;7.89;68.55;102870.67;1721297;83;21195;-46
2020/12/17 03:09:02;;;;;;;4.92;4.40;;;;;;;7.89;68.52;102871.97;1721191;83;21333;-46
2020/12/17 03:11:30;;;;;;;5.28;4.70;;;;;;;7.89;68.51;102874.56;1720800;83;21149;-46
2020/12/17 03:13:58;;;;;;;6.40;4.72;;;;;;;7.90;68.58;102878.92;1720762;83;21188;-46
2020/12/17 03:16:27;;;;;;;5.25;4.53;;;;;;;7.90;68.75;102884.11;1720855;83;21184;-46
2020/12/17 03:19:06;;;;;;;;;;;;;;;;;;;;;
2020/12/17 03:21:30;;;;;;;7.25;4.72;;;;;;;7.99;68.78;102880.44;1781074;79;23049;-46
2020/12/17 03:23:59;;;;;;;5.30;4.78;;;;;;;7.97;68.67;102879.53;1753950;82;21278;-45
2020/12/17 03:26:27;;;;;;;5.00;4.40;;;;;;;7.96;68.54;102879.06;1754119;82;21285;-46
2020/12/17 03:28:57;;;;;;;5.85;4.03;;;;;;;7.97;68.56;102887.31;1753777;82;21282;-46
2020/12/17 03:31:25;;;;;;;5.28;4.50;;;;;;;7.97;68.58;102880.83;1753784;82;21618;-46
2020/12/17 03:33:54;;;;;;;5.58;4.85;;;;;;;8.00;68.43;102886.06;1753739;82;21295;-46
2020/12/17 03:36:23;;;;;;;7.58;6.08;;;;;;;8.01;68.28;102882.64;1753780;81;21177;-45
2020/12/17 03:38:51;;;;;;;4.87;4.35;;;;;;;8.03;68.14;102888.73;1753762;82;21302;-45
2020/12/17 03:41:21;;;;;;;4.85;3.92;;;;;;;8.03;68.00;102888.73;1753741;82;21125;-45
2020/12/17 03:43:51;;;;;;;4.67;4.28;;;;;;;8.02;67.98;102883.08;1706883;84;21197;-46
2020/12/17 03:46:20;;;;;;;8.58;4.25;;;;;;;8.04;67.93;102890.47;1697028;83;21220;-45
2020/12/17 03:48:50;;;;;;;5.67;4.58;;;;;;;8.06;67.78;102881.02;1692204;85;21312;-45
2020/12/17 03:51:18;;;;;;;6.95;4.65;;;;;;;8.06;67.59;102882.31;1696761;84;21331;-45
2020/12/17 03:53:46;;;;;;;5.45;4.05;;;;;;;8.06;67.44;102879.72;1691989;85;21190;-45
2020/12/17 03:56:16;;;;;;;5.45;3.92;;;;;;;8.05;67.37;102881.88;1696774;84;21225;-45
2020/12/17 03:58:47;;;;;;;4.90;4.10;;;;;;;8.03;67.24;102885.27;1692185;85;21201;-45
2020/12/17 04:01:16;;;;;;;4.62;4.03;;;;;;;8.01;67.36;102883.94;1696717;83;21181;-45
2020/12/17 04:03:44;;;;;;;5.28;4.30;;;;;;;8.00;67.46;102891.25;1692212;85;21324;-45
2020/12/17 04:06:20;;;;;;;5.33;4.83;;;;;;;8.06;67.50;102882.72;1802011;79;27991;-46
2020/12/17 04:08:51;;;;;;;4.55;4.05;;;;;;;8.06;67.50;102890.09;1784344;80;21132;-46
2020/12/17 04:11:19;;;;;;;4.72;4.17;;;;;;;8.11;67.17;102891.49;1788241;80;21263;-45
2020/12/17 04:13:47;;;;;;;5.53;4.37;;;;;;;8.13;67.04;102895.88;1788505;80;21262;-45
2020/12/17 04:16:15;;;;;;;7.58;3.67;;;;;;;8.12;66.85;102890.22;1788337;80;21667;-45
2020/12/17 04:18:44;;;;;;;5.85;3.55;;;;;;;8.12;66.72;102886.33;1788574;80;21544;-45
2020/12/17 04:21:12;;;;;;;6.58;3.95;;;;;;;8.12;66.68;102886.33;1788300;79;21108;-45
2020/12/17 04:23:41;;;;;;;7.30;4.00;;;;;;;8.11;66.83;102886.30;1788252;79;21281;-46
2020/12/17 04:26:17;;;;;;;4.78;4.10;;;;;;;8.09;66.83;102885.40;1788744;80;21584;-45
2020/12/17 04:28:45;;;;;;;5.17;3.80;;;;;;;8.07;66.91;102880.19;1753768;82;21313;-45
2020/12/17 04:31:14;;;;;;;3.70;3.35;;;;;;;8.07;67.15;102882.78;1754342;82;21136;-45
2020/12/17 04:33:42;;;;;;;4.37;3.98;;;;;;;8.07;67.17;102882.78;1753846;82;21281;-45
2020/12/17 04:36:10;;;;;;;5.22;4.30;;;;;;;8.07;66.97;102884.08;1754037;82;21592;-45
2020/12/17 04:38:38;;;;;;;6.05;4.22;;;;;;;8.08;66.85;102884.52;1753951;82;21289;-45
2020/12/17 04:41:18;;;;;;;4.78;4.28;;;;;;;8.12;66.86;102888.92;1804450;79;28445;-45
2020/12/17 04:43:48;;;;;;;4.25;3.85;;;;;;;8.11;66.92;102888.90;1793635;80;21131;-45
2020/12/17 04:46:19;;;;;;;6.12;3.62;;;;;;;8.14;66.91;102892.42;1793658;80;21155;-45
2020/12/17 04:48:47;;;;;;;4.70;4.08;;;;;;;8.33;66.62;102898.03;1793452;80;21195;-45
2020/12/17 04:51:17;;;;;;;4.87;3.90;;;;;;;8.54;65.90;102901.97;1793628;80;21581;-46
2020/12/17 04:53:50;;;;;;;5.43;4.27;;;;;;;8.23;66.48;102900.42;1793534;80;21160;-46
2020/12/17 04:56:19;;;;;;;4.23;3.50;;;;;;;8.23;66.48;102900.42;1793748;80;22256;-45
2020/12/17 04:58:49;;;;;;;5.00;3.50;;;;;;;8.17;66.87;102900.29;1793434;80;21171;-45
2020/12/17 05:01:18;;;;;;;5.35;3.77;;;;;;;8.53;65.86;102907.14;1793401;80;21179;-46
2020/12/17 05:03:48;;;;;;;5.28;3.70;;;;;;;8.54;65.78;102911.47;1793572;80;21136;-45
2020/12/17 05:06:24;;;;;;;3.65;3.25;;;;;;;8.57;65.57;102906.36;1793262;80;21175;-45
2020/12/17 05:08:53;;;;;;;6.80;4.20;;;;;;;8.60;65.36;102907.29;1793577;80;21136;-45
2020/12/17 05:11:21;;;;;;;5.03;3.87;;;;;;;8.61;65.29;102913.36;1793644;80;21583;-45
2020/12/17 05:13:51;;;;;;;4.20;3.65;;;;;;;8.61;65.37;102909.47;1793637;80;21100;-46
2020/12/17 05:16:19;;;;;;;3.50;3.20;;;;;;;8.60;65.45;102913.77;1789002;80;21175;-45
2020/12/17 05:18:52;;;;;;;4.30;3.58;;;;;;;8.59;65.42;102912.45;1793188;80;21104;-46
2020/12/17 05:21:22;;;;;;;4.28;3.85;;;;;;;8.58;65.39;102906.38;1793283;80;21140;-46
2020/12/17 05:23:51;;;;;;;5.20;3.58;;;;;;;8.59;65.29;102921.54;1685750;85;21623;-46
2020/12/17 05:26:27;;;;;;;4.62;4.12;;;;;;;8.67;65.33;102919.97;1802010;79;28116;-46
2020/12/17 05:28:55;;;;;;;6.35;3.35;;;;;;;8.67;65.33;102921.27;1758962;80;21282;-46
2020/12/17 05:31:23;;;;;;;3.72;3.33;;;;;;;8.76;65.15;102922.73;1760098;80;21305;-46
2020/12/17 05:33:52;;;;;;;3.95;3.62;;;;;;;8.75;65.15;102924.89;1788241;80;21261;-46
2020/12/17 05:36:24;;;;;;;3.77;3.27;;;;;;;8.75;65.06;102923.59;1788237;79;21277;-46
2020/12/17 05:39:15;;;;;;;4.58;3.98;;;;;;;8.74;65.22;102925.72;1781039;79;23493;-46
2020/12/17 05:41:48;;;;;;;3.47;3.17;;;;;;;8.68;65.26;102938.16;1753923;82;21165;-45
2020/12/17 05:44:23;;;;;;;3.60;3.30;;;;;;;8.67;65.19;102936.84;1709332;82;21186;-46
2020/12/17 05:46:57;;;;;;;3.87;3.30;;;;;;;8.70;64.98;102934.29;1780996;79;22908;-45
2020/12/17 05:49:29;;;;;;;3.98;3.58;;;;;;;8.62;64.95;102935.86;1753780;82;21282;-45
2020/12/17 05:52:17;;;;;;;3.47;3.17;;;;;;;8.63;64.94;102938.92;1707305;84;21638;-45
2020/12/17 05:55:02;;;;;;;5.78;4.05;;;;;;;8.65;64.81;102938.53;1684561;85;21186;-46
2020/12/17 05:57:30;;;;;;;5.12;4.12;;;;;;;8.65;64.83;102938.53;1696988;83;21675;-45
2020/12/17 06:00:04;;;;;;;4.93;3.57;;;;;;;8.67;64.81;102943.33;1692427;85;21319;-47
2020/12/17 06:02:39;;;;;;;3.87;3.42;;;;;;;8.70;64.81;102944.67;1820003;79;22784;-45
2020/12/17 06:05:16;;;;;;;3.33;3.02;;;;;;;8.65;64.99;102948.50;1793425;80;21168;-46
2020/12/17 06:07:48;;;;;;;5.10;3.90;;;;;;;8.65;65.32;102945.02;1793471;80;21156;-46
2020/12/17 06:10:24;;;;;;;5.15;3.95;;;;;;;8.65;65.52;102953.69;1789081;80;21294;-46
2020/12/17 06:12:59;;;;;;;4.50;4.00;;;;;;;8.67;65.44;102945.52;1793521;80;21545;-46
2020/12/17 06:15:28;;;;;;;3.37;3.08;;;;;;;8.68;65.46;102951.14;1793321;80;21188;-46
2020/12/17 06:17:59;;;;;;;5.45;3.60;;;;;;;8.68;65.47;102948.95;1793275;80;21187;-47
2020/12/17 06:20:31;;;;;;;3.52;3.22;;;;;;;8.69;65.42;102950.72;1793271;80;21725;-46
2020/12/17 06:23:02;;;;;;;4.55;3.55;;;;;;;8.67;65.52;102944.63;1793467;80;21187;-46
2020/12/17 06:25:35;;;;;;;4.12;3.37;;;;;;;8.69;65.58;102945.53;1685582;85;21200;-46
2020/12/17 06:28:03;;;;;;;;;;;;;;;8.59;65.79;102948.78;1688095;85;21201;-46
2020/12/17 06:30:34;;;;;;;4.53;3.98;;;;;;;8.68;65.82;102948.95;1685679;85;20150;-47
2020/12/17 06:33:04;;;;;;;4.25;3.58;;;;;;;8.70;65.81;102953.75;1685604;85;21177;-46
2020/12/17 06:35:50;;;;;;;3.98;3.20;;;;;;;8.70;65.67;102960.25;1685581;85;21613;-46
2020/12/17 06:38:25;;;;;;;3.95;3.27;;;;;;;8.72;65.47;102952.06;1820005;79;22797;-46
2020/12/17 06:40:56;;;;;;;3.85;3.45;;;;;;;8.67;65.41;102948.52;1793509;80;21180;-46
2020/12/17 06:46:36;;;;;;;4.22;3.33;;;;;;;8.75;65.43;102945.66;1781055;79;22916;-45
2020/12/17 06:49:07;;;;;;;3.17;2.87;;;;;;;8.70;65.31;102951.16;1753822;82;21167;-46
2020/12/17 06:51:39;;;;;;;4.10;3.37;;;;;;;8.70;65.26;102952.46;1706673;84;21202;-47
2020/12/17 06:54:19;;;;;;;3.47;3.17;;;;;;;8.73;65.22;102955.13;1691991;85;21212;-46
2020/12/17 06:57:10;;;;;;;5.05;3.58;;;;;;;8.76;65.31;102950.88;1819978;79;22819;-46
2020/12/17 06:59:44;;;;;;;5.35;3.27;;;;;;;8.73;65.24;102956.43;1793686;80;21584;-46
2020/12/17 07:02:18;;;;;;;4.85;3.65;;;;;;;8.79;65.27;102957.85;1715945;83;21591;-46
2020/12/17 07:04:55;;;;;;;4.50;3.60;;;;;;;8.86;65.19;102958.44;1781064;79;22932;-45
2020/12/17 07:07:23;;;;;;;3.72;3.30;;;;;;;8.81;65.30;102955.75;1753776;82;21266;-45
2020/12/17 07:09:56;;;;;;;5.50;3.90;;;;;;;8.82;65.29;102957.93;1753787;82;21156;-47
2020/12/17 07:12:40;;;;;;;4.87;3.90;;;;;;;8.82;65.33;102955.34;1753986;82;21121;-52
2020/12/17 07:15:35;;;;;;;4.97;3.33;;;;;;;8.83;65.30;102957.07;1753751;81;21310;-46
2020/12/17 07:18:24;;;;;;;4.33;3.22;;;;;;;8.87;65.25;102967.97;1753043;82;21145;-46
2020/12/17 07:21:06;;;;;;;3.37;3.08;;;;;;;8.86;65.19;102964.94;1753822;82;21176;-46
2020/12/17 07:23:39;;;;;;;3.85;2.75;;;;;;;8.87;65.26;102964.95;1753859;82;21324;-45
2020/12/17 07:26:12;;;;;;;3.72;3.05;;;;;;;8.86;65.24;102970.13;1709303;83;21209;-45
2020/12/17 07:28:52;;;;;;;3.65;2.80;;;;;;;8.90;65.34;102967.59;1781185;79;23346;-45
2020/12/17 07:31:27;;;;;;;3.22;2.77;;;;;;;8.89;65.19;102972.77;1753765;82;21283;-45
2020/12/17 07:33:56;;;;;;;3.00;2.70;;;;;;;8.92;65.06;102978.04;1754049;82;21125;-45
2020/12/17 07:36:46;;;;;;;5.17;2.85;;;;;;;8.93;64.98;102974.58;1753796;81;21298;-45
2020/12/17 07:39:14;;;;;;;3.15;2.85;;;;;;;8.94;64.95;102973.75;1750078;82;21117;-46
2020/12/17 07:41:47;;;;;;;3.45;3.15;;;;;;;8.95;65.11;102978.08;1753993;82;21270;-46
2020/12/17 07:44:34;;;;;;;;;;;;;;;8.96;65.25;102974.66;1752088;82;21312;-46
2020/12/17 07:47:19;;;;;;;4.08;3.50;;;;;;;8.96;65.39;102977.25;1753717;81;20496;-46
2020/12/17 07:49:47;;;;;;;3.80;3.37;;;;;;;8.98;65.49;102973.81;1753714;82;21184;-46
2020/12/17 07:52:32;;;;;;;4.03;3.55;;;;;;;8.99;65.62;102972.10;1754168;82;21151;-46
2020/12/17 07:55:01;;;;;;;4.20;3.60;;;;;;;9.01;65.69;102975.61;1689323;84;21176;-45
2020/12/17 07:57:33;;;;;;;5.20;3.25;;;;;;;9.00;65.99;102972.58;1689274;85;21310;-45
2020/12/17 08:00:02;;;;;;;3.70;3.05;;;;;;;9.02;66.23;102969.58;1689298;85;21169;-46
2020/12/17 08:02:34;;;;;;;4.33;3.77;;;;;;;9.08;66.39;102968.41;1658137;86;21192;-46
2020/12/17 08:05:04;;;;;;;4.97;4.22;;;;;;;9.12;66.33;102963.72;1652619;86;21612;-46
2020/12/17 08:07:32;;;;;;;5.80;4.10;;;;;;;9.16;66.29;102957.73;1658373;86;21266;-46
2020/12/17 08:10:01;;;;;;;3.83;3.50;;;;;;;9.19;66.29;102962.97;1614939;88;21339;-46
2020/12/17 08:12:29;;;;;;;5.08;3.55;;;;;;;9.22;66.35;102962.16;1660322;86;21751;-45
2020/12/17 08:15:09;;;;;;;5.00;4.45;;;;;;;9.26;66.34;102958.36;1660039;86;21201;-46
2020/12/17 08:17:38;;;;;;;4.58;4.17;;;;;;;9.33;66.32;102961.53;1660588;86;21605;-46
2020/12/17 08:20:06;;;;;;;5.10;4.55;;;;;;;9.38;66.21;102959.88;1660083;86;21278;-46
2020/12/17 08:22:34;;;;;;;5.60;4.47;;;;;;;9.42;66.11;102956.48;1660069;86;21145;-46
2020/12/17 08:25:05;;;;;;;5.30;4.42;;;;;;;9.44;66.03;102949.59;1660095;86;21629;-46
2020/12/17 08:27:34;;;;;;;;;;;;;;;9.45;66.12;102953.95;1666485;86;21310;-46
2020/12/17 08:30:03;;;;;;;4.17;3.77;;;;;;;9.47;66.23;102949.66;1669951;86;20269;-47
2020/12/17 08:32:31;;;;;;;4.33;3.92;;;;;;;9.50;66.24;102944.49;1670207;86;21180;-47
2020/12/17 08:34:59;;;;;;;5.40;4.10;;;;;;;9.53;66.14;102947.16;1670219;86;21344;-46
2020/12/17 08:37:27;;;;;;;4.12;3.50;;;;;;;9.54;66.09;102945.45;1670046;86;21746;-47
2020/12/17 08:40:06;;;;;;;4.15;3.55;;;;;;;9.56;65.86;102942.00;1669715;84;21168;-47
2020/12/17 08:42:39;;;;;;;4.33;3.92;;;;;;;9.60;65.86;102943.80;1781044;79;22919;-46
2020/12/17 08:45:12;;;;;;;4.47;4.08;;;;;;;9.56;65.93;102939.40;1748920;82;21258;-47
2020/12/17 08:47:41;;;;;;;5.00;4.47;;;;;;;9.61;66.04;102940.37;1753892;82;21168;-47
2020/12/17 08:50:12;;;;;;;5.37;4.87;;;;;;;9.62;66.09;102939.50;1754279;82;21549;-47
2020/12/17 08:52:43;;;;;;;4.70;3.72;;;;;;;9.64;66.04;102936.50;1753758;81;21322;-47
2020/12/17 08:55:12;;;;;;;5.40;4.20;;;;;;;9.66;65.83;102938.73;1754004;82;21164;-47
2020/12/17 08:57:41;;;;;;;5.55;5.03;;;;;;;9.65;65.92;102935.66;1753899;82;21165;-46
2020/12/17 09:00:14;;;;;;;5.62;4.78;;;;;;;9.65;66.09;102937.38;1754151;82;21156;-47
2020/12/17 09:02:45;;;;;;;6.10;5.50;;;;;;;9.66;66.17;102933.95;1753721;82;21153;-46
2020/12/17 09:05:13;;;;;;;6.30;4.85;;;;;;;9.69;66.14;102933.98;1747873;81;21612;-45
2020/12/17 09:07:46;;;;;;;4.90;4.35;;;;;;;9.70;65.96;102937.93;1747913;82;21173;-45
2020/12/17 09:10:17;;;;;;;4.72;4.22;;;;;;;9.69;65.87;102930.97;1744362;82;21116;-46
2020/12/17 09:12:46;;;;;;;7.78;4.67;;;;;;;9.69;66.00;102932.69;1747652;82;21314;-46
2020/12/17 09:15:15;;;;;;;4.85;4.42;;;;;;;9.69;66.15;102930.97;1747592;82;21167;-46
2020/12/17 09:17:43;;;;;;;5.15;4.65;;;;;;;9.71;66.14;102933.16;1747671;82;21375;-46
2020/12/17 09:20:20;;;;;;;6.00;4.78;;;;;;;9.73;66.21;102930.16;1720445;82;21167;-46
2020/12/17 09:22:48;;;;;;;5.00;3.77;;;;;;;9.74;66.30;102929.33;1747837;82;21163;-45
2020/12/17 09:25:20;;;;;;;4.62;4.12;;;;;;;9.76;66.33;102930.23;1747953;82;21588;-46
2020/12/17 09:27:48;;;;;;;7.67;4.90;;;;;;;9.79;66.38;102933.28;1741578;82;21338;-46
2020/12/17 09:30:37;;;;;;;6.40;4.87;;;;;;;9.79;66.45;102930.26;1747667;82;21145;-46
2020/12/17 09:33:05;;;;;;;5.53;4.90;;;;;;;9.82;66.50;102930.33;1747646;82;21322;-46
2020/12/17 09:35:36;;;;;;;4.90;4.00;;;;;;;9.86;66.40;102926.04;1747631;82;21314;-45
2020/12/17 09:38:12;;;;;;;4.95;4.50;;;;;;;9.93;66.32;102920.52;1801909;78;27998;-46
2020/12/17 09:40:41;;;;;;;4.87;3.87;;;;;;;9.95;66.23;102930.51;1788551;79;21163;-46
2020/12/17 09:43:14;;;;;;;4.78;3.98;;;;;;;10.02;65.94;102925.41;1788522;80;21560;-46
2020/12/17 09:45:44;;;;;;;4.53;4.12;;;;;;;10.04;65.90;102925.42;1788252;80;21159;-46
2020/12/17 09:48:22;;;;;;;4.20;3.85;;;;;;;10.08;65.81;102920.72;1788227;80;21163;-46
2020/12/17 09:51:04;;;;;;;5.50;4.72;;;;;;;10.09;65.67;102912.08;1788625;80;21690;-46
2020/12/17 09:53:38;;;;;;;5.78;4.80;;;;;;;10.09;65.61;102912.08;1788539;80;21140;-46
2020/12/17 09:56:11;;;;;;;6.75;4.15;;;;;;;10.08;65.58;102912.91;1754042;82;21140;-46
2020/12/17 09:58:46;;;;;;;4.70;3.98;;;;;;;10.12;65.72;102912.17;1819993;79;22817;-46
2020/12/17 10:01:14;;;;;;;5.33;4.12;;;;;;;10.08;65.74;102914.22;1793296;80;21191;-46
2020/12/17 10:03:43;;;;;;;5.42;4.25;;;;;;;10.09;65.75;102916.86;1793404;80;21289;-47
2020/12/17 10:06:13;;;;;;;4.97;4.05;;;;;;;10.12;65.56;102914.32;1793071;80;21112;-46
2020/12/17 10:08:41;;;;;;;6.12;4.28;;;;;;;10.13;65.45;102910.88;1793310;80;21282;-46
2020/12/17 10:11:09;;;;;;;5.03;4.25;;;;;;;9.91;66.05;102909.21;1793287;80;21286;-46
2020/12/17 10:13:38;;;;;;;10.90;4.25;;;;;;;9.87;66.31;102912.62;1793518;80;21121;-46
2020/12/17 10:16:06;;;;;;;6.95;4.20;;;;;;;9.85;66.54;102909.55;1793566;80;21152;-45
2020/12/17 10:18:35;;;;;;;6.55;4.12;;;;;;;9.88;66.58;102903.95;1793518;80;21153;-46
2020/12/17 10:21:03;;;;;;;4.85;4.35;;;;;;;9.92;66.44;102916.14;1762854;80;21148;-46
2020/12/17 10:23:31;;;;;;;5.12;4.00;;;;;;;9.91;66.39;102914.00;1793285;80;21282;-46
2020/12/17 10:25:59;;;;;;;8.80;4.47;;;;;;;9.89;66.37;102910.92;1793273;80;21144;-46
2020/12/17 10:28:27;;;;;;;5.67;4.53;;;;;;;9.89;66.42;102901.81;1793568;80;21612;-46
2020/12/17 10:30:57;;;;;;;5.92;4.30;;;;;;;9.91;66.35;102902.71;1788762;80;21144;-46
2020/12/17 10:33:26;;;;;;;5.15;4.17;;;;;;;9.95;66.14;102900.61;1793433;80;21588;-46
2020/12/17 10:35:55;;;;;;;4.97;4.47;;;;;;;9.99;66.00;102896.77;1793265;80;21156;-47
2020/12/17 10:38:23;;;;;;;5.05;3.98;;;;;;;10.00;65.92;102901.11;1793366;80;21121;-46
2020/12/17 10:40:51;;;;;;;5.65;3.83;;;;;;;10.01;65.92;102893.77;1793242;80;21156;-47
2020/12/17 10:43:19;;;;;;;4.75;4.25;;;;;;;10.02;65.96;102892.02;1793365;80;21156;-48
2020/12/17 10:45:48;;;;;;;5.55;4.03;;;;;;;10.02;65.99;102885.52;1793714;80;21148;-47
2020/12/17 10:48:17;;;;;;;5.50;4.25;;;;;;;10.04;66.05;102891.61;1793273;80;21156;-46
2020/12/17 10:50:47;;;;;;;5.95;5.17;;;;;;;9.80;66.63;102880.02;1793296;80;21156;-46
2020/12/17 10:53:17;;;;;;;6.03;4.30;;;;;;;9.74;66.73;102882.53;1793224;80;21160;-47
2020/12/17 10:55:45;;;;;;;5.53;3.90;;;;;;;9.72;66.86;102879.03;1793281;80;21294;-46
2020/12/17 10:58:15;;;;;;;4.67;3.80;;;;;;;9.68;66.86;102874.64;1788207;80;21325;-46
2020/12/17 11:00:46;;;;;;;4.03;3.62;;;;;;;9.67;66.97;102875.48;1785813;80;21172;-47
2020/12/17 11:03:15;;;;;;;6.78;4.17;;;;;;;9.67;66.95;102878.08;1785513;80;21723;-46
2020/12/17 11:05:44;;;;;;;7.58;4.53;;;;;;;9.69;66.96;102872.89;1785436;80;21176;-47
2020/12/17 11:08:13;;;;;;;6.22;4.28;;;;;;;9.70;67.01;102878.14;1785536;80;21157;-47
2020/12/17 11:10:41;;;;;;;4.40;3.52;;;;;;;9.71;67.06;102871.19;1785050;80;21180;-46
2020/12/17 11:13:11;;;;;;;5.53;4.75;;;;;;;9.71;67.09;102875.97;1780953;80;21161;-47
2020/12/17 11:15:39;;;;;;;4.60;3.98;;;;;;;9.71;67.21;102877.27;1784924;80;21176;-47
2020/12/17 11:18:17;;;;;;;4.00;3.62;;;;;;;9.71;67.33;102874.67;1785234;80;21298;-47
2020/12/17 11:20:45;;;;;;;5.37;4.50;;;;;;;9.72;67.29;102873.84;1785204;80;21168;-46
2020/12/17 11:23:15;;;;;;;5.00;4.50;;;;;;;9.71;67.01;102876.39;1784939;80;21172;-47
2020/12/17 11:25:43;;;;;;;6.65;5.05;;;;;;;9.69;66.81;102867.28;1720921;83;21196;-46
2020/12/17 11:28:13;;;;;;;6.15;5.28;;;;;;;9.68;66.77;102875.94;1720744;83;21185;-47
2020/12/17 11:30:43;;;;;;;6.40;5.30;;;;;;;9.65;66.83;102871.98;1721007;83;21172;-46
2020/12/17 11:33:17;;;;;;;8.80;7.05;;;;;;;9.69;67.06;102867.70;1781029;79;23030;-46
2020/12/17 11:35:46;;;;;;;8.75;7.65;;;;;;;9.62;67.31;102866.72;1753769;82;21310;-45
2020/12/17 11:38:15;;;;;;;10.35;7.92;;;;;;;9.61;67.37;102874.50;1753901;80;21152;-46
2020/12/17 11:40:48;;;;;;;7.85;7.15;;;;;;;9.60;67.41;102868.42;1753722;81;21125;-45
2020/12/17 11:43:18;;;;;;;;;;;;;;;9.67;67.13;102870.28;1752242;82;21153;-45
2020/12/17 11:45:46;;;;;;;8.88;6.17;;;;;;;9.88;66.26;102872.74;1753942;82;20228;-46
2020/12/17 11:48:14;;;;;;;11.45;5.33;;;;;;;9.89;66.11;102865.41;1753801;82;21172;-46
2020/12/17 11:50:43;;;;;;;7.95;5.30;;;;;;;9.85;65.95;102872.27;1753736;82;21322;-45
2020/12/17 11:53:11;;;;;;;7.33;4.47;;;;;;;9.60;66.61;102871.47;1753905;82;21160;-46
2020/12/17 11:55:40;;;;;;;11.18;4.42;;;;;;;9.54;66.71;102870.92;1753713;82;21279;-46
2020/12/17 11:58:08;;;;;;;5.53;4.97;;;;;;;9.52;66.64;102872.62;1753827;82;21148;-45